KZR118 UCFM-UAAA
Flight info
| Callsign | KZR118 |
|---|---|
| Flight time | N/A |
| Altitude | 21000 |
| Route | UMLOD1 UMLOD L143 BINRI Z370 EKLAT EKLAT1Z |
| Aircraft | A321/M-SDE3FGHIRWY/LB1 |
Departure
| Time | 2026-05-04 15:24 |
|---|---|
| Airport | Manas International Airport (UCFM) |
Arrival
| Time | N/A |
|---|---|
| Airport | Almaty International Airport (UAAA) |
| Time | Latitude | Longitude | Altitude | Speed | Heading |
|---|---|---|---|---|---|
| 2026-05-04 14:50 | 43.05493 | 74.46962 | 2069 ft | 0 kts | 168° |
| 2026-05-04 15:12 | 43.05499 | 74.46961 | 2069 ft | 2 kts | 165° |
| 2026-05-04 15:12 | 43.05515 | 74.46956 | 2069 ft | 2 kts | 168° |
| 2026-05-04 15:13 | 43.05532 | 74.46952 | 2069 ft | 2 kts | 169° |
| 2026-05-04 15:13 | 43.05548 | 74.46947 | 2069 ft | 2 kts | 154° |
| 2026-05-04 15:13 | 43.05561 | 74.46934 | 2068 ft | 2 kts | 120° |
| 2026-05-04 15:13 | 43.05568 | 74.46914 | 2069 ft | 2 kts | 107° |
| 2026-05-04 15:14 | 43.05572 | 74.46892 | 2069 ft | 2 kts | 95° |
| 2026-05-04 15:14 | 43.05573 | 74.46874 | 2069 ft | 1 kts | 83° |
| 2026-05-04 15:14 | 43.05573 | 74.46872 | 2069 ft | 0 kts | 81° |
| 2026-05-04 15:16 | 43.05575 | 74.46890 | 2069 ft | 3 kts | 81° |
| 2026-05-04 15:17 | 43.05580 | 74.46933 | 2069 ft | 6 kts | 81° |
| 2026-05-04 15:17 | 43.05597 | 74.47079 | 2069 ft | 7 kts | 81° |
| 2026-05-04 15:17 | 43.05606 | 74.47152 | 2069 ft | 9 kts | 77° |
| 2026-05-04 15:18 | 43.05661 | 74.47183 | 2069 ft | 10 kts | 355° |
| 2026-05-04 15:18 | 43.05735 | 74.47166 | 2069 ft | 8 kts | 349° |
| 2026-05-04 15:18 | 43.05798 | 74.47152 | 2069 ft | 10 kts | 356° |
| 2026-05-04 15:19 | 43.05856 | 74.47287 | 2069 ft | 11 kts | 79° |
| 2026-05-04 15:19 | 43.05871 | 74.47400 | 2069 ft | 13 kts | 79° |
| 2026-05-04 15:19 | 43.05904 | 74.47653 | 2069 ft | 13 kts | 80° |
| 2026-05-04 15:20 | 43.05921 | 74.47786 | 2068 ft | 15 kts | 80° |
| 2026-05-04 15:20 | 43.05941 | 74.47935 | 2069 ft | 17 kts | 79° |
| 2026-05-04 15:20 | 43.05961 | 74.48095 | 2069 ft | 18 kts | 81° |
| 2026-05-04 15:20 | 43.05982 | 74.48267 | 2068 ft | 19 kts | 80° |
| 2026-05-04 15:21 | 43.05997 | 74.48375 | 2068 ft | 8 kts | 79° |
| 2026-05-04 15:21 | 43.06013 | 74.48456 | 2069 ft | 9 kts | 60° |
| 2026-05-04 15:21 | 43.06106 | 74.48612 | 2068 ft | 12 kts | 49° |
| 2026-05-04 15:22 | 43.06162 | 74.48700 | 2068 ft | 13 kts | 49° |
| 2026-05-04 15:22 | 43.06213 | 74.48777 | 2067 ft | 9 kts | 40° |
| 2026-05-04 15:22 | 43.06251 | 74.48734 | 2067 ft | 2 kts | 267° |
| 2026-05-04 15:23 | 43.06250 | 74.48712 | 2067 ft | 2 kts | 267° |
| 2026-05-04 15:23 | 43.06248 | 74.48690 | 2067 ft | 3 kts | 263° |
| 2026-05-04 15:23 | 43.06211 | 74.48428 | 2070 ft | 68 kts | 259° |
| 2026-05-04 15:23 | 43.06076 | 74.47428 | 2069 ft | 143 kts | 259° |
| 2026-05-04 15:24 | 43.05606 | 74.43947 | 2939 ft | 201 kts | 261° |
| 2026-05-04 15:24 | 43.05911 | 74.40305 | 4088 ft | 212 kts | 315° |
| 2026-05-04 15:25 | 43.07250 | 74.39358 | 4255 ft | 229 kts | 350° |
| 2026-05-04 15:25 | 43.08912 | 74.39084 | 4375 ft | 253 kts | 358° |
| 2026-05-04 15:25 | 43.10726 | 74.39123 | 4797 ft | 266 kts | 8° |
| 2026-05-04 15:26 | 43.14057 | 74.41197 | 6086 ft | 270 kts | 49° |
| 2026-05-04 15:26 | 43.15030 | 74.43391 | 6727 ft | 273 kts | 72° |
| 2026-05-04 15:26 | 43.15389 | 74.48586 | 8001 ft | 278 kts | 83° |
| 2026-05-04 15:27 | 43.15742 | 74.51202 | 8663 ft | 281 kts | 75° |
| 2026-05-04 15:27 | 43.17240 | 74.56056 | 9935 ft | 287 kts | 62° |
| 2026-05-04 15:28 | 43.18854 | 74.60126 | 10478 ft | 311 kts | 62° |
| 2026-05-04 15:28 | 43.19916 | 74.62820 | 10603 ft | 331 kts | 62° |
| 2026-05-04 15:28 | 43.22179 | 74.68562 | 11371 ft | 348 kts | 62° |
| 2026-05-04 15:29 | 43.23338 | 74.71497 | 11926 ft | 352 kts | 61° |